createdAt,value
2023-05-14T00:00:32.132Z,12.30
2023-05-14T00:02:59.206Z,12.20
2023-05-14T00:05:26.139Z,12.10
2023-05-14T00:07:52.886Z,12.10
2023-05-14T00:10:21.882Z,12.20
2023-05-14T00:12:51.492Z,12.40
2023-05-14T00:15:18.285Z,12.30
2023-05-14T00:17:45.190Z,12.20
2023-05-14T00:20:12.371Z,12.20
2023-05-14T00:22:40.185Z,12.10
2023-05-14T00:25:08.200Z,12.10
2023-05-14T00:27:36.056Z,12.10
2023-05-14T00:30:06.855Z,12.10
2023-05-14T00:32:34.193Z,12.10
2023-05-14T00:35:03.101Z,12.00
2023-05-14T00:37:29.892Z,12.00
2023-05-14T00:39:56.662Z,11.90
2023-05-14T00:42:23.386Z,12.00
2023-05-14T00:44:50.124Z,12.10
2023-05-14T00:47:16.938Z,12.00
2023-05-14T00:49:43.889Z,12.00
2023-05-14T00:52:11.829Z,11.90
2023-05-14T00:54:38.972Z,11.90
2023-05-14T00:57:06.728Z,12.00
2023-05-14T00:59:33.660Z,12.00
2023-05-14T01:02:00.593Z,12.00
2023-05-14T01:04:27.581Z,12.00
2023-05-14T01:07:00.631Z,12.00
2023-05-14T01:09:36.803Z,11.90
2023-05-14T01:12:09.510Z,12.00
2023-05-14T01:15:15.267Z,12.10
2023-05-14T01:17:47.113Z,12.10
2023-05-14T01:20:15.518Z,12.10
2023-05-14T01:22:42.648Z,12.00
2023-05-14T01:25:09.903Z,12.00
2023-05-14T01:27:55.033Z,12.10
2023-05-14T01:30:24.927Z,12.10
2023-05-14T01:32:55.584Z,12.00
2023-05-14T01:35:27.108Z,11.90
2023-05-14T01:38:03.147Z,11.80
2023-05-14T01:40:31.807Z,11.90
2023-05-14T01:42:59.320Z,11.80
2023-05-14T01:45:26.595Z,11.90
2023-05-14T01:47:54.459Z,11.90
2023-05-14T01:50:21.649Z,12.00
2023-05-14T01:52:48.614Z,12.10
2023-05-14T01:55:16.032Z,12.10
2023-05-14T01:57:42.781Z,12.10
2023-05-14T02:00:09.825Z,12.00
2023-05-14T02:02:36.734Z,12.00
2023-05-14T02:05:05.566Z,12.10
2023-05-14T02:07:33.760Z,12.00
2023-05-14T02:10:00.676Z,12.00
2023-05-14T02:12:27.508Z,12.00
2023-05-14T02:14:54.414Z,11.90
2023-05-14T02:17:21.216Z,11.90
2023-05-14T02:19:48.098Z,12.10
2023-05-14T02:22:14.837Z,12.10
2023-05-14T02:24:41.614Z,12.10
2023-05-14T02:27:08.507Z,12.10
2023-05-14T02:29:35.278Z,12.00
2023-05-14T02:32:02.031Z,12.00
2023-05-14T02:34:28.853Z,12.20
2023-05-14T02:36:55.685Z,12.50
2023-05-14T02:39:22.543Z,12.40
2023-05-14T02:41:49.275Z,12.20
2023-05-14T02:44:16.073Z,12.10
2023-05-14T02:46:43.720Z,12.00
2023-05-14T02:49:10.564Z,11.90
2023-05-14T02:51:37.270Z,11.90
2023-05-14T02:54:04.131Z,12.20
2023-05-14T02:56:31.114Z,12.30
2023-05-14T02:58:57.854Z,12.20
2023-05-14T03:01:25.693Z,12.20
2023-05-14T03:03:52.849Z,12.00
2023-05-14T03:06:19.568Z,12.00
2023-05-14T03:08:46.311Z,12.10
2023-05-14T03:11:13.047Z,12.10
2023-05-14T03:13:39.867Z,12.20
2023-05-14T03:16:06.862Z,12.10
2023-05-14T03:18:34.838Z,12.10
2023-05-14T03:21:01.625Z,12.20
2023-05-14T03:23:28.583Z,12.10
2023-05-14T03:25:55.339Z,12.10
2023-05-14T03:28:22.078Z,12.00
2023-05-14T03:30:48.881Z,12.00
2023-05-14T03:33:15.802Z,11.90
2023-05-14T03:35:42.563Z,12.00
2023-05-14T03:38:09.340Z,12.10
2023-05-14T03:40:36.203Z,12.30
2023-05-14T03:43:02.963Z,12.20
2023-05-14T03:45:30.500Z,12.10
2023-05-14T03:47:57.346Z,12.00
2023-05-14T03:50:25.776Z,12.10
2023-05-14T03:52:52.933Z,12.00
2023-05-14T03:55:20.319Z,12.10
2023-05-14T03:57:48.307Z,12.20
2023-05-14T04:00:15.538Z,12.10
2023-05-14T04:02:42.836Z,12.10
2023-05-14T04:05:09.869Z,12.00
2023-05-14T04:07:36.834Z,11.90
2023-05-14T04:10:04.741Z,11.80
2023-05-14T04:12:31.722Z,11.80
2023-05-14T04:14:58.875Z,11.70
2023-05-14T04:17:25.948Z,11.70
2023-05-14T04:19:52.779Z,11.70
2023-05-14T04:22:19.603Z,11.80
2023-05-14T04:24:46.384Z,11.90
2023-05-14T04:27:21.373Z,11.80
2023-05-14T04:29:51.493Z,11.90
2023-05-14T04:32:18.413Z,11.80
2023-05-14T04:34:46.864Z,12.10
2023-05-14T04:37:14.011Z,12.40
2023-05-14T04:39:40.760Z,12.30
2023-05-14T04:42:07.984Z,12.40
2023-05-14T04:44:35.495Z,12.40
2023-05-14T04:47:02.869Z,12.60
2023-05-14T04:49:30.386Z,12.30
2023-05-14T04:51:57.166Z,12.40
2023-05-14T04:54:24.097Z,12.50
2023-05-14T04:56:51.220Z,12.70
2023-05-14T04:59:18.029Z,12.30
2023-05-14T05:01:45.942Z,12.10
2023-05-14T05:04:13.064Z,12.20
2023-05-14T05:06:40.045Z,12.10
2023-05-14T05:09:06.916Z,12.20
2023-05-14T05:11:33.673Z,12.10
2023-05-14T05:14:00.579Z,12.40
2023-05-14T05:16:27.518Z,12.30
2023-05-14T05:18:54.419Z,12.20
2023-05-14T05:21:21.246Z,12.30
2023-05-14T05:23:48.001Z,12.30
2023-05-14T05:26:14.795Z,12.30
2023-05-14T05:28:41.509Z,12.70
2023-05-14T05:31:08.447Z,12.80
2023-05-14T05:33:35.848Z,12.60
2023-05-14T05:36:02.860Z,12.60
2023-05-14T05:38:29.648Z,12.70
2023-05-14T05:40:56.400Z,12.80
2023-05-14T05:43:23.204Z,12.70
2023-05-14T05:45:49.946Z,12.80
2023-05-14T05:48:17.018Z,12.50
2023-05-14T05:50:44.920Z,12.40
2023-05-14T05:53:12.451Z,12.50
2023-05-14T05:55:39.282Z,12.50
2023-05-14T05:58:06.002Z,12.60
2023-05-14T06:00:33.209Z,12.60
2023-05-14T06:03:01.098Z,12.70
2023-05-14T06:05:28.031Z,12.50
2023-05-14T06:07:54.911Z,12.60
2023-05-14T06:10:21.995Z,12.40
2023-05-14T06:12:48.978Z,12.40
2023-05-14T06:15:15.800Z,12.30
2023-05-14T06:17:42.719Z,12.10
2023-05-14T06:20:09.987Z,11.90
2023-05-14T06:22:36.844Z,11.80
2023-05-14T06:25:04.434Z,11.80
2023-05-14T06:27:31.183Z,11.80
2023-05-14T06:29:58.017Z,11.80
2023-05-14T06:32:24.875Z,11.80
2023-05-14T06:34:51.627Z,11.80
2023-05-14T06:37:18.437Z,11.90
2023-05-14T06:39:50.122Z,11.90
2023-05-14T06:42:17.928Z,11.90
2023-05-14T06:44:45.381Z,11.90
2023-05-14T06:47:12.140Z,12.00
2023-05-14T06:49:39.391Z,12.00
2023-05-14T06:52:06.590Z,12.30
2023-05-14T06:54:33.353Z,12.20
2023-05-14T06:57:00.288Z,12.30
2023-05-14T06:59:27.024Z,12.40
2023-05-14T07:01:53.892Z,12.40
2023-05-14T07:04:20.696Z,12.30
2023-05-14T07:06:47.512Z,12.20
2023-05-14T07:09:14.442Z,12.20
2023-05-14T07:11:41.181Z,12.20
2023-05-14T07:14:07.911Z,12.20
2023-05-14T07:16:34.829Z,12.20
2023-05-14T07:19:01.606Z,12.10
2023-05-14T07:21:28.465Z,12.00
2023-05-14T07:23:55.218Z,11.90
2023-05-14T07:26:24.401Z,11.80
2023-05-14T07:28:51.251Z,11.80
2023-05-14T07:31:18.192Z,11.90
2023-05-14T07:33:45.259Z,12.00
2023-05-14T07:36:12.065Z,11.90
2023-05-14T07:38:38.993Z,12.00
2023-05-14T07:41:05.797Z,12.10
2023-05-14T07:43:32.689Z,12.10
2023-05-14T07:45:59.506Z,12.20
2023-05-14T07:48:26.332Z,12.20
2023-05-14T07:50:53.843Z,12.20
2023-05-14T07:53:20.639Z,12.10
2023-05-14T07:55:49.047Z,12.20
2023-05-14T07:58:16.334Z,12.20
2023-05-14T08:00:43.167Z,12.30
2023-05-14T08:03:10.020Z,12.30
2023-05-14T08:05:36.960Z,12.20
2023-05-14T08:08:03.899Z,12.20
2023-05-14T08:10:31.066Z,12.40
2023-05-14T08:12:57.839Z,12.50
2023-05-14T08:15:26.445Z,12.50
2023-05-14T08:17:54.889Z,12.40
2023-05-14T08:20:22.217Z,12.40
2023-05-14T08:22:49.222Z,12.20
2023-05-14T08:25:16.082Z,12.20
2023-05-14T08:27:42.902Z,12.20
2023-05-14T08:30:10.012Z,12.20
2023-05-14T08:32:38.562Z,12.20
2023-05-14T08:35:05.909Z,12.10
2023-05-14T08:37:32.771Z,12.20
2023-05-14T08:39:59.535Z,12.20
2023-05-14T08:42:28.592Z,12.40
2023-05-14T08:45:03.209Z,12.60
2023-05-14T08:47:31.049Z,12.50
2023-05-14T08:50:06.538Z,12.50
2023-05-14T08:52:34.367Z,12.50
2023-05-14T08:55:04.613Z,12.60
2023-05-14T08:57:33.185Z,12.80
2023-05-14T09:00:00.652Z,13.00
2023-05-14T09:02:31.500Z,13.10
2023-05-14T09:05:01.690Z,13.20
2023-05-14T09:07:28.859Z,13.20
2023-05-14T09:09:55.982Z,13.30
2023-05-14T09:12:22.957Z,13.20
2023-05-14T09:14:50.728Z,13.10
2023-05-14T09:17:19.019Z,13.10
2023-05-14T09:19:49.501Z,13.30
2023-05-14T09:22:17.675Z,13.50
2023-05-14T09:24:44.860Z,13.50
2023-05-14T09:27:21.448Z,13.70
2023-05-14T09:29:48.638Z,14.10
2023-05-14T09:32:15.635Z,14.30
2023-05-14T09:34:42.457Z,14.40
2023-05-14T09:37:09.735Z,14.40
2023-05-14T09:39:37.605Z,14.40
2023-05-14T09:42:04.893Z,14.60
2023-05-14T09:44:32.041Z,14.80
2023-05-14T09:46:59.008Z,14.90
2023-05-14T09:49:26.061Z,15.00
2023-05-14T09:51:52.990Z,15.10
2023-05-14T09:54:19.837Z,15.10
2023-05-14T09:56:46.686Z,15.20
2023-05-14T09:59:13.479Z,15.10
2023-05-14T10:01:43.353Z,15.10
2023-05-14T10:04:11.232Z,15.00
2023-05-14T10:06:39.095Z,15.00
2023-05-14T10:09:13.017Z,15.40
2023-05-14T10:11:43.847Z,15.60
2023-05-14T10:14:39.945Z,15.50
2023-05-14T10:17:07.749Z,15.50
2023-05-14T10:19:36.054Z,15.60
2023-05-14T10:22:08.351Z,15.60
2023-05-14T10:24:38.763Z,15.40
2023-05-14T10:27:05.836Z,15.60
2023-05-14T10:29:37.916Z,15.40
2023-05-14T10:32:06.978Z,15.30
2023-05-14T10:34:37.225Z,15.50
2023-05-14T10:37:06.338Z,15.90
2023-05-14T10:39:44.828Z,16.00
2023-05-14T10:42:16.946Z,16.00
2023-05-14T10:44:58.872Z,16.20
2023-05-14T10:47:29.301Z,16.40
2023-05-14T10:49:59.058Z,16.50
2023-05-14T10:52:26.356Z,16.60
2023-05-14T10:54:55.874Z,16.40
2023-05-14T10:57:30.748Z,16.70
2023-05-14T10:59:59.740Z,16.90
2023-05-14T11:02:31.563Z,16.50
2023-05-14T11:04:59.561Z,16.50
2023-05-14T11:07:34.129Z,16.50
2023-05-14T11:10:04.971Z,16.80
2023-05-14T11:12:33.288Z,16.70
2023-05-14T11:15:02.671Z,16.50
2023-05-14T11:17:30.911Z,16.50
2023-05-14T11:19:58.170Z,16.60
2023-05-14T11:22:25.108Z,16.90
2023-05-14T11:24:52.318Z,17.10
2023-05-14T11:27:21.809Z,17.20
2023-05-14T11:29:49.538Z,16.80
2023-05-14T11:32:17.190Z,16.90
2023-05-14T11:34:45.042Z,17.30
2023-05-14T11:37:13.040Z,17.20
2023-05-14T11:39:40.374Z,17.30
2023-05-14T11:42:12.531Z,17.40
2023-05-14T11:44:39.652Z,17.40
2023-05-14T11:47:06.683Z,17.50
2023-05-14T11:49:35.981Z,17.40
2023-05-14T11:52:05.285Z,17.60
2023-05-14T11:54:33.433Z,17.60
2023-05-14T11:57:07.268Z,17.60
2023-05-14T11:59:34.203Z,17.60
2023-05-14T12:02:02.456Z,17.70
2023-05-14T12:04:29.581Z,17.80
2023-05-14T12:06:58.925Z,17.80
2023-05-14T12:09:25.962Z,18.00
2023-05-14T12:11:53.103Z,17.90
2023-05-14T12:14:24.161Z,17.70
2023-05-14T12:16:51.765Z,18.00
2023-05-14T12:19:19.809Z,18.00
2023-05-14T12:21:50.986Z,18.00
2023-05-14T12:24:19.929Z,18.10
2023-05-14T12:26:50.869Z,18.20
2023-05-14T12:29:17.958Z,18.10
2023-05-14T12:31:49.497Z,18.30
2023-05-14T12:34:16.990Z,18.50
2023-05-14T12:36:44.242Z,18.20
2023-05-14T12:39:12.277Z,18.20
2023-05-14T12:41:39.021Z,18.20
2023-05-14T12:44:06.452Z,18.20
2023-05-14T12:46:34.355Z,18.40
2023-05-14T12:49:01.316Z,18.40
2023-05-14T12:51:28.158Z,18.30
2023-05-14T12:53:55.034Z,18.20
2023-05-14T12:56:27.621Z,18.40
2023-05-14T12:58:56.467Z,18.60
2023-05-14T13:01:24.814Z,18.70
2023-05-14T13:03:51.576Z,18.70
2023-05-14T13:06:18.420Z,18.80
2023-05-14T13:08:45.292Z,18.40
2023-05-14T13:11:12.247Z,18.30
2023-05-14T13:13:39.051Z,18.40
2023-05-14T13:16:06.266Z,18.50
2023-05-14T13:18:33.069Z,18.90
2023-05-14T13:20:59.975Z,19.20
2023-05-14T13:23:26.742Z,19.30
2023-05-14T13:25:53.498Z,19.40
2023-05-14T13:28:20.419Z,19.40
2023-05-14T13:31:03.962Z,19.40
2023-05-14T13:33:30.787Z,19.50
2023-05-14T13:35:57.501Z,19.30
2023-05-14T13:38:24.362Z,19.20
2023-05-14T13:40:51.167Z,19.30
2023-05-14T13:43:17.993Z,19.50
2023-05-14T13:45:44.772Z,19.60
2023-05-14T13:48:11.730Z,19.60
2023-05-14T13:50:38.503Z,19.70
2023-05-14T13:53:05.554Z,19.60
2023-05-14T13:55:32.375Z,19.60
2023-05-14T13:57:59.501Z,19.60
2023-05-14T14:00:27.514Z,19.40
2023-05-14T14:02:54.405Z,19.60
2023-05-14T14:05:21.411Z,19.60
2023-05-14T14:07:49.751Z,19.50
2023-05-14T14:10:17.284Z,19.40
2023-05-14T14:12:44.025Z,19.40
2023-05-14T14:15:11.395Z,19.40
2023-05-14T14:17:39.062Z,19.30
2023-05-14T14:20:08.351Z,19.30
2023-05-14T14:22:35.605Z,19.30
2023-05-14T14:25:03.324Z,19.30
2023-05-14T14:27:36.021Z,19.40
2023-05-14T14:30:02.943Z,19.50
2023-05-14T14:32:29.793Z,19.40
2023-05-14T14:34:56.520Z,19.40
2023-05-14T14:37:23.434Z,19.60
2023-05-14T14:39:50.242Z,19.60
2023-05-14T14:42:16.968Z,19.50
2023-05-14T14:44:43.704Z,19.40
2023-05-14T14:47:10.467Z,19.50
2023-05-14T14:49:37.211Z,19.60
2023-05-14T14:52:04.070Z,19.40
2023-05-14T14:54:30.840Z,19.30
2023-05-14T14:56:57.565Z,19.30
2023-05-14T14:59:24.385Z,19.20
2023-05-14T15:01:51.205Z,19.20
2023-05-14T15:04:18.013Z,19.30
2023-05-14T15:06:44.767Z,19.40
2023-05-14T15:09:11.827Z,19.30
2023-05-14T15:11:38.612Z,19.20
2023-05-14T15:14:05.425Z,19.10
2023-05-14T15:16:32.278Z,19.10
2023-05-14T15:18:59.161Z,19.10
2023-05-14T15:21:26.489Z,19.10
2023-05-14T15:23:53.293Z,19.10
2023-05-14T15:26:20.044Z,19.20
2023-05-14T15:28:46.777Z,19.20
2023-05-14T15:31:13.649Z,19.10
2023-05-14T15:33:41.741Z,19.20
2023-05-14T15:36:08.742Z,19.30
2023-05-14T15:38:35.584Z,19.40
2023-05-14T15:41:02.362Z,19.60
2023-05-14T15:43:29.106Z,19.30
2023-05-14T15:45:56.036Z,19.40
2023-05-14T15:48:22.772Z,19.60
2023-05-14T15:50:49.772Z,19.70
2023-05-14T15:53:16.765Z,19.10
2023-05-14T15:55:44.542Z,18.90
2023-05-14T15:58:12.802Z,19.10
2023-05-14T16:00:39.577Z,19.00
2023-05-14T16:03:06.534Z,18.80
2023-05-14T16:05:33.581Z,18.60
2023-05-14T16:08:00.388Z,18.70
2023-05-14T16:10:27.327Z,18.70
2023-05-14T16:12:54.252Z,18.40
2023-05-14T16:15:21.094Z,18.30
2023-05-14T16:17:47.900Z,18.20
2023-05-14T16:20:15.588Z,18.50
2023-05-14T16:22:42.417Z,18.50
2023-05-14T16:25:09.344Z,18.40
2023-05-14T16:27:36.553Z,18.30
2023-05-14T16:30:04.474Z,18.10
2023-05-14T16:32:31.326Z,18.10
2023-05-14T16:34:58.111Z,17.70
2023-05-14T16:37:24.953Z,17.40
2023-05-14T16:39:51.732Z,17.50
2023-05-14T16:42:18.474Z,17.50
2023-05-14T16:44:45.299Z,17.70
2023-05-14T16:47:12.089Z,17.60
2023-05-14T16:49:38.790Z,17.70
2023-05-14T16:52:06.082Z,17.80
2023-05-14T16:54:32.873Z,17.90
2023-05-14T16:56:59.629Z,17.80
2023-05-14T16:59:26.422Z,17.70
2023-05-14T17:01:53.485Z,17.80
2023-05-14T17:04:21.209Z,17.80
2023-05-14T17:06:49.568Z,17.70
2023-05-14T17:09:16.955Z,17.60
2023-05-14T17:11:43.819Z,17.50
2023-05-14T17:14:10.723Z,17.20
2023-05-14T17:16:38.935Z,17.10
2023-05-14T17:19:05.833Z,16.90
2023-05-14T17:21:32.596Z,17.00
2023-05-14T17:23:59.346Z,16.80
2023-05-14T17:26:26.334Z,16.60
2023-05-14T17:28:53.146Z,16.40
2023-05-14T17:31:20.113Z,16.30
2023-05-14T17:33:46.895Z,16.30
2023-05-14T17:36:13.677Z,16.40
2023-05-14T17:38:41.303Z,16.20
2023-05-14T17:41:08.052Z,16.10
2023-05-14T17:43:34.805Z,16.30
2023-05-14T17:46:01.608Z,16.60
2023-05-14T17:48:28.313Z,16.60
2023-05-14T17:50:55.060Z,16.40
2023-05-14T17:53:21.891Z,16.50
2023-05-14T17:55:48.685Z,16.30
2023-05-14T17:58:16.284Z,16.20
2023-05-14T18:00:43.606Z,16.20
2023-05-14T18:03:10.781Z,16.20
2023-05-14T18:05:37.807Z,15.90
2023-05-14T18:08:04.701Z,15.90
2023-05-14T18:10:31.460Z,15.90
2023-05-14T18:12:58.236Z,16.00
2023-05-14T18:15:25.833Z,16.10
2023-05-14T18:17:53.166Z,15.80
2023-05-14T18:20:20.315Z,15.40
2023-05-14T18:22:47.099Z,15.30
2023-05-14T18:25:13.916Z,15.20
2023-05-14T18:27:44.490Z,15.30
2023-05-14T18:30:13.488Z,15.40
2023-05-14T18:32:44.451Z,15.60
2023-05-14T18:35:12.908Z,15.80
2023-05-14T18:37:39.749Z,15.70
2023-05-14T18:40:07.401Z,15.50
2023-05-14T18:42:34.737Z,15.40
2023-05-14T18:45:01.653Z,15.30
2023-05-14T18:47:28.755Z,15.40
2023-05-14T18:49:58.139Z,15.30
2023-05-14T18:52:26.266Z,15.20
2023-05-14T18:54:54.011Z,15.10
2023-05-14T18:57:21.389Z,15.00
2023-05-14T18:59:48.529Z,15.10
2023-05-14T19:02:15.335Z,15.10
2023-05-14T19:04:51.880Z,15.00
2023-05-14T19:07:20.647Z,14.80
2023-05-14T19:09:47.590Z,14.60
2023-05-14T19:12:14.893Z,14.50
2023-05-14T19:14:42.131Z,14.30
2023-05-14T19:17:08.982Z,14.20
2023-05-14T19:19:35.914Z,14.30
2023-05-14T19:22:02.697Z,14.40
2023-05-14T19:24:29.481Z,14.50
2023-05-14T19:26:56.319Z,14.40
2023-05-14T19:29:23.053Z,14.40
2023-05-14T19:31:50.097Z,14.30
2023-05-14T19:34:16.960Z,14.10
2023-05-14T19:36:43.726Z,14.40
2023-05-14T19:39:10.972Z,14.50
2023-05-14T19:41:37.774Z,14.40
2023-05-14T19:44:04.498Z,14.40
2023-05-14T19:46:31.358Z,14.40
2023-05-14T19:48:58.126Z,14.40
2023-05-14T19:51:25.449Z,14.00
2023-05-14T19:53:52.238Z,13.90
2023-05-14T19:56:19.075Z,13.80
2023-05-14T19:58:45.797Z,13.80
2023-05-14T20:01:12.752Z,13.80
2023-05-14T20:03:39.512Z,13.80
2023-05-14T20:06:07.420Z,13.70
2023-05-14T20:08:34.353Z,13.70
2023-05-14T20:11:01.546Z,13.70
2023-05-14T20:13:31.692Z,13.60
2023-05-14T20:15:58.984Z,13.40
2023-05-14T20:18:25.919Z,13.40
2023-05-14T20:20:52.636Z,13.30
2023-05-14T20:23:20.686Z,13.30
2023-05-14T20:25:47.842Z,13.10
2023-05-14T20:28:14.586Z,13.10
2023-05-14T20:30:41.423Z,13.00
2023-05-14T20:33:08.307Z,13.10
2023-05-14T20:35:35.171Z,12.90
2023-05-14T20:38:03.659Z,12.90
2023-05-14T20:40:32.695Z,12.80
2023-05-14T20:42:59.573Z,12.80
2023-05-14T20:45:26.573Z,12.80
2023-05-14T20:47:53.598Z,12.90
2023-05-14T20:50:21.528Z,12.70
2023-05-14T20:52:48.497Z,12.70
2023-05-14T20:55:15.484Z,12.70
2023-05-14T20:57:43.595Z,12.70
2023-05-14T21:00:11.218Z,12.70
2023-05-14T21:02:38.105Z,12.60
2023-05-14T21:05:05.425Z,12.60
2023-05-14T21:07:32.350Z,12.50
2023-05-14T21:09:59.296Z,12.60
2023-05-14T21:12:26.032Z,12.50
2023-05-14T21:14:52.781Z,12.50
2023-05-14T21:17:19.598Z,12.70
2023-05-14T21:19:46.357Z,12.90
2023-05-14T21:22:13.815Z,13.10
2023-05-14T21:24:40.668Z,13.40
2023-05-14T21:27:07.457Z,13.60
2023-05-14T21:29:34.268Z,13.60
2023-05-14T21:32:01.162Z,13.80
2023-05-14T21:34:29.170Z,13.70
2023-05-14T21:36:57.252Z,13.80
2023-05-14T21:39:24.011Z,13.60
2023-05-14T21:41:50.792Z,13.60
2023-05-14T21:44:17.569Z,13.30
2023-05-14T21:46:44.335Z,13.30
2023-05-14T21:49:11.050Z,13.70
2023-05-14T21:51:37.879Z,13.50
2023-05-14T21:54:04.855Z,13.10
2023-05-14T21:56:31.592Z,13.10
2023-05-14T21:58:58.407Z,12.80
2023-05-14T22:01:25.170Z,12.50
2023-05-14T22:03:51.969Z,12.50
2023-05-14T22:06:18.844Z,12.40
2023-05-14T22:08:45.590Z,12.20
2023-05-14T22:11:12.485Z,12.20
2023-05-14T22:13:41.035Z,12.10
2023-05-14T22:16:12.597Z,11.90
2023-05-14T22:18:40.679Z,11.90
2023-05-14T22:21:07.479Z,11.90
2023-05-14T22:23:34.327Z,11.90
2023-05-14T22:26:01.139Z,11.70
2023-05-14T22:28:27.967Z,11.70
2023-05-14T22:30:56.440Z,11.60
2023-05-14T22:33:23.383Z,11.50
2023-05-14T22:35:50.591Z,11.50
2023-05-14T22:38:17.393Z,11.40
2023-05-14T22:40:44.188Z,11.40
2023-05-14T22:43:10.906Z,11.40
2023-05-14T22:45:37.674Z,11.20
2023-05-14T22:48:04.718Z,11.20
2023-05-14T22:50:31.488Z,11.20
2023-05-14T22:52:58.258Z,11.30
2023-05-14T22:55:25.261Z,11.20
2023-05-14T22:57:52.254Z,11.20
2023-05-14T23:00:19.335Z,11.10
2023-05-14T23:02:46.233Z,11.30
2023-05-14T23:05:13.096Z,11.30
2023-05-14T23:07:39.813Z,11.30
2023-05-14T23:10:07.036Z,11.30
2023-05-14T23:12:34.045Z,11.20
2023-05-14T23:15:00.865Z,11.20
2023-05-14T23:17:27.832Z,11.30
2023-05-14T23:19:54.741Z,11.30
2023-05-14T23:22:22.027Z,11.40
2023-05-14T23:24:48.818Z,11.30
2023-05-14T23:27:15.681Z,11.10
2023-05-14T23:29:42.438Z,11.10
2023-05-14T23:32:09.432Z,11.00
2023-05-14T23:34:36.237Z,11.00
2023-05-14T23:37:03.035Z,10.80
2023-05-14T23:39:29.988Z,10.60
2023-05-14T23:41:56.699Z,10.70
2023-05-14T23:44:23.628Z,10.80
2023-05-14T23:46:50.748Z,10.90
2023-05-14T23:49:17.660Z,11.00
2023-05-14T23:51:44.424Z,11.00
2023-05-14T23:54:11.834Z,11.00
2023-05-14T23:56:38.768Z,10.80
2023-05-14T23:59:05.549Z,10.80
